Time;durP1;ratioP1;P1;durP2;ratioP2;P2;SDS_P1;SDS_P2;PMS_P1;PMS_P2;Temp;Humidity;BMP_temperature;BMP_pressure;BME280_temperature;BME280_humidity;BME280_pressure;Samples;Min_cycle;Max_cycle;Signal;HPM_P1;HPM_P2
2023/05/10 00:00:27;;;;;;;8.25;5.95;;;13.60;99.90;;;;;;7404768;19;19935;-74
2023/05/10 00:02:56;;;;;;;10.15;7.20;;;13.70;99.90;;;;;;7401209;19;19949;-74
2023/05/10 00:05:25;;;;;;;9.48;6.53;;;13.60;99.90;;;;;;7403108;19;19955;-74
2023/05/10 00:07:57;;;;;;;9.55;6.63;;;13.60;99.90;;;;;;7404685;19;20339;-74
2023/05/10 00:10:26;;;;;;;8.57;6.43;;;13.60;99.90;;;;;;7401790;19;19919;-74
2023/05/10 00:12:59;;;;;;;9.23;6.30;;;13.50;99.90;;;;;;7402923;19;19918;-74
2023/05/10 00:15:47;;;;;;;8.50;6.10;;;14.00;99.90;;;;;;7400423;19;19925;-73
2023/05/10 00:18:16;;;;;;;10.32;6.70;;;13.70;99.90;;;;;;7402324;19;19925;-74
2023/05/10 00:20:45;;;;;;;10.60;6.30;;;13.60;99.90;;;;;;7401958;19;19929;-74
2023/05/10 00:23:22;;;;;;;10.00;6.13;;;13.50;99.90;;;;;;7403399;19;19926;-74
2023/05/10 00:25:51;;;;;;;9.32;5.88;;;13.60;99.90;;;;;;7401050;19;19936;-74
2023/05/10 00:28:37;;;;;;;8.90;6.03;;;13.50;99.90;;;;;;7399413;19;20370;-74
2023/05/10 00:31:14;;;;;;;9.95;6.38;;;13.60;99.90;;;;;;7401623;19;19980;-74
2023/05/10 00:33:43;;;;;;;9.88;6.35;;;13.50;99.90;;;;;;7401570;19;19922;-73
2023/05/10 00:36:13;;;;;;;10.35;6.05;;;13.60;99.90;;;;;;7401632;19;19914;-74
2023/05/10 00:38:45;;;;;;;9.23;6.40;;;13.40;99.90;;;;;;7401850;19;19922;-74
2023/05/10 00:41:17;;;;;;;11.57;6.63;;;13.40;99.90;;;;;;7402736;19;19915;-74
2023/05/10 00:43:46;;;;;;;10.90;6.70;;;13.50;99.90;;;;;;7402246;19;19918;-74
2023/05/10 00:46:16;;;;;;;10.65;6.65;;;13.60;99.90;;;;;;7399635;19;19939;-74
2023/05/10 00:48:46;;;;;;;11.73;6.47;;;13.40;99.90;;;;;;7401460;19;20256;-74
2023/05/10 00:51:15;;;;;;;15.85;7.15;;;13.50;99.90;;;;;;7400647;19;20303;-74
2023/05/10 00:53:48;;;;;;;6.55;4.05;;;13.60;99.90;;;;;;7401960;19;19996;-74
2023/05/10 00:56:20;;;;;;;4.13;3.03;;;13.60;99.90;;;;;;7399747;19;19929;-74
2023/05/10 00:58:49;;;;;;;3.08;2.38;;;13.40;99.90;;;;;;7401170;19;20407;-74
2023/05/10 01:01:18;;;;;;;2.42;1.80;;;13.40;99.90;;;;;;7400286;19;19943;-74
2023/05/10 01:03:47;;;;;;;3.65;2.22;;;13.20;99.90;;;;;;7396433;19;19923;-74
2023/05/10 01:06:16;;;;;;;4.47;2.70;;;13.20;99.90;;;;;;7398919;19;19922;-74
2023/05/10 01:08:49;;;;;;;3.83;2.75;;;13.20;99.90;;;;;;7402867;19;19931;-74
2023/05/10 01:11:18;;;;;;;8.68;3.40;;;13.10;99.90;;;;;;7400531;19;20022;-74
2023/05/10 01:14:00;;;;;;;4.68;3.88;;;13.10;99.90;;;;;;7399364;19;20320;-74
2023/05/10 01:16:30;;;;;;;5.22;3.80;;;13.00;99.90;;;;;;7401364;19;19978;-74
2023/05/10 01:18:59;;;;;;;5.57;4.00;;;13.10;99.90;;;;;;7400402;19;20296;-74
2023/05/10 01:21:38;;;;;;;7.22;4.30;;;12.90;99.90;;;;;;7397659;19;19926;-73
2023/05/10 01:24:40;;;;;;;5.93;4.00;;;12.80;99.90;;;;;;7398525;19;19918;-74
2023/05/10 01:27:47;;;;;;;5.38;4.22;;;12.90;99.90;;;;;;7396721;19;20010;-73
2023/05/10 01:30:53;;;;;;;5.90;3.97;;;12.60;99.90;;;;;;7392120;19;19943;-73
2023/05/10 01:33:28;;;;;;;4.43;3.60;;;12.80;99.90;;;;;;7400123;19;19930;-74
2023/05/10 01:36:06;;;;;;;5.18;3.75;;;12.70;99.90;;;;;;7399319;19;19918;-74
2023/05/10 01:38:50;;;;;;;5.82;3.97;;;12.60;99.90;;;;;;7399838;19;19987;-74
2023/05/10 01:41:23;;;;;;;5.95;4.15;;;12.70;99.90;;;;;;7398702;19;19926;-74
2023/05/10 01:43:59;;;;;;;6.25;4.00;;;12.60;99.90;;;;;;7400474;19;20245;-74
2023/05/10 01:46:37;;;;;;;6.40;4.25;;;12.60;99.90;;;;;;7400238;19;19957;-74
2023/05/10 01:49:14;;;;;;;8.88;4.57;;;12.50;99.90;;;;;;7400721;19;19989;-73
2023/05/10 01:51:47;;;;;;;5.22;4.10;;;12.40;99.90;;;;;;7399576;19;19986;-74
2023/05/10 01:54:20;;;;;;;6.40;5.00;;;12.60;99.90;;;;;;7398907;19;19998;-74
2023/05/10 01:56:54;;;;;;;6.57;4.30;;;12.60;99.90;;;;;;7398974;19;19978;-74
2023/05/10 01:59:24;;;;;;;6.47;4.88;;;12.60;99.90;;;;;;7396955;19;19919;-73
2023/05/10 02:01:55;;;;;;;7.18;5.05;;;12.60;99.90;;;;;;7398319;19;20026;-74
2023/05/10 02:04:28;;;;;;;7.10;4.60;;;12.80;99.90;;;;;;7398600;19;20891;-74
2023/05/10 02:06:59;;;;;;;6.80;4.03;;;12.60;99.90;;;;;;7400041;19;19926;-74
2023/05/10 02:09:30;;;;;;;6.85;4.72;;;12.60;99.90;;;;;;7399875;19;19930;-74
2023/05/10 02:12:02;;;;;;;5.97;4.22;;;12.70;99.90;;;;;;7399968;19;20083;-74
2023/05/10 02:14:37;;;;;;;6.03;4.25;;;12.70;99.90;;;;;;7401968;19;19934;-74
2023/05/10 02:17:11;;;;;;;6.85;4.80;;;12.60;99.90;;;;;;7403814;19;19922;-74
2023/05/10 02:19:45;;;;;;;6.38;4.68;;;12.70;99.90;;;;;;7404439;19;19925;-74
2023/05/10 02:22:16;;;;;;;7.57;4.70;;;12.80;99.90;;;;;;7405016;19;19918;-75
2023/05/10 02:24:46;;;;;;;7.03;4.43;;;12.70;99.90;;;;;;7406507;19;19922;-74
2023/05/10 02:27:16;;;;;;;7.30;5.45;;;12.80;99.90;;;;;;7406384;19;19950;-74
2023/05/10 02:29:46;;;;;;;6.63;4.03;;;12.80;99.90;;;;;;7404418;19;20015;-73
2023/05/10 02:32:17;;;;;;;8.30;4.85;;;12.60;99.90;;;;;;7404339;19;19910;-74
2023/05/10 02:34:52;;;;;;;6.72;4.60;;;12.60;99.90;;;;;;7403916;19;19919;-73
2023/05/10 02:37:23;;;;;;;7.30;4.47;;;12.50;99.90;;;;;;7401651;19;19922;-73
2023/05/10 02:39:54;;;;;;;;;;;12.60;99.90;;;;;;7406236;19;19938;-73
2023/05/10 02:42:27;;;;;;;7.90;4.82;;;12.60;99.90;;;;;;7403903;19;19978;-73
2023/05/10 02:44:59;;;;;;;8.20;4.97;;;12.60;99.90;;;;;;7404657;19;19915;-73
2023/05/10 02:47:28;;;;;;;7.55;4.70;;;12.70;99.90;;;;;;7402969;19;19923;-73
2023/05/10 02:50:00;;;;;;;7.72;4.82;;;12.60;99.90;;;;;;7404809;19;19923;-73
2023/05/10 02:52:37;;;;;;;6.57;4.60;;;12.70;99.90;;;;;;7405057;19;19918;-73
2023/05/10 02:55:09;;;;;;;6.45;4.25;;;12.60;99.90;;;;;;7404036;19;20357;-73
2023/05/10 02:57:44;;;;;;;6.80;4.82;;;12.60;99.90;;;;;;7403056;19;19949;-73
2023/05/10 03:00:14;;;;;;;7.18;4.53;;;12.50;99.90;;;;;;7403100;19;20277;-73
2023/05/10 03:02:44;;;;;;;7.40;4.47;;;12.60;99.90;;;;;;7400572;19;20232;-74
2023/05/10 03:05:15;;;;;;;6.35;4.15;;;12.50;99.90;;;;;;7403690;19;20271;-74
2023/05/10 03:07:45;;;;;;;6.93;4.78;;;14.40;99.90;;;;;;7403896;19;19918;-74
2023/05/10 03:10:14;;;;;;;7.10;4.43;;;12.40;99.90;;;;;;7405016;19;20328;-74
2023/05/10 03:13:00;;;;;;;7.47;4.72;;;12.60;99.90;;;;;;7402889;19;20268;-74
2023/05/10 03:15:40;;;;;;;6.35;4.68;;;12.50;99.90;;;;;;7405192;19;19915;-74
2023/05/10 03:18:18;;;;;;;7.60;4.90;;;12.50;99.90;;;;;;7404679;19;19942;-74
2023/05/10 03:20:52;;;;;;;7.28;4.75;;;12.50;99.90;;;;;;7403367;19;20011;-74
2023/05/10 03:23:27;;;;;;;6.93;4.45;;;12.50;99.90;;;;;;7404394;19;20347;-74
2023/05/10 03:25:56;;;;;;;8.15;4.78;;;12.50;99.90;;;;;;7400878;19;19928;-74
2023/05/10 03:28:29;;;;;;;8.20;4.53;;;12.40;99.90;;;;;;7402442;19;19982;-74
2023/05/10 03:30:58;;;;;;;8.32;4.28;;;12.40;99.90;;;;;;7403089;19;19978;-74
2023/05/10 03:33:27;;;;;;;8.70;4.85;;;12.40;99.90;;;;;;7399857;19;20396;-74
2023/05/10 03:35:59;;;;;;;7.95;5.95;;;12.50;99.90;;;;;;7402261;19;19926;-74
2023/05/10 03:38:33;;;;;;;8.02;4.68;;;12.40;99.90;;;;;;7402722;19;19979;-74
2023/05/10 03:41:02;;;;;;;6.03;4.25;;;12.40;99.90;;;;;;7403268;19;19942;-74
2023/05/10 03:43:31;;;;;;;5.93;3.78;;;12.40;99.90;;;;;;7398767;19;19931;-73
2023/05/10 03:46:00;;;;;;;5.10;3.63;;;12.40;99.90;;;;;;7401036;19;19922;-74
2023/05/10 03:48:34;;;;;;;5.43;4.00;;;12.30;99.90;;;;;;7402289;19;19939;-74
2023/05/10 03:51:06;;;;;;;7.72;3.80;;;12.30;99.90;;;;;;7401058;19;19935;-74
2023/05/10 03:53:35;;;;;;;6.15;4.15;;;12.30;99.90;;;;;;7402407;19;19928;-74
2023/05/10 03:56:05;;;;;;;6.88;4.28;;;12.30;99.90;;;;;;7399612;19;19931;-74
2023/05/10 03:58:34;;;;;;;10.07;4.82;;;12.20;99.90;;;;;;7402533;19;19977;-74
2023/05/10 04:01:03;;;;;;;7.60;4.95;;;12.20;99.90;;;;;;7400780;19;19926;-74
2023/05/10 04:03:32;;;;;;;8.48;5.30;;;12.20;99.90;;;;;;7398823;19;19923;-74
2023/05/10 04:06:11;;;;;;;9.32;5.03;;;12.20;99.90;;;;;;7399978;19;19919;-74
2023/05/10 04:08:40;;;;;;;8.13;4.95;;;12.30;99.90;;;;;;7401340;19;20019;-74
2023/05/10 04:11:10;;;;;;;12.75;5.25;;;12.40;99.90;;;;;;7401973;19;19923;-74
2023/05/10 04:13:40;;;;;;;10.68;5.28;;;12.40;99.90;;;;;;7400511;19;19948;-73
2023/05/10 04:16:09;;;;;;;11.90;5.18;;;12.30;99.90;;;;;;7403578;19;19942;-74
2023/05/10 04:18:45;;;;;;;9.88;5.18;;;12.30;99.90;;;;;;7400923;19;19933;-74
2023/05/10 04:21:17;;;;;;;11.18;4.85;;;12.20;99.90;;;;;;7402681;19;19926;-74
2023/05/10 04:23:46;;;;;;;12.02;6.10;;;12.30;99.90;;;;;;7402069;19;19966;-73
2023/05/10 04:26:15;;;;;;;11.70;5.28;;;12.30;99.90;;;;;;7402688;19;20032;-73
2023/05/10 04:28:44;;;;;;;8.88;5.85;;;12.30;99.90;;;;;;7399713;19;19914;-73
2023/05/10 04:31:13;;;;;;;10.50;5.80;;;12.20;99.90;;;;;;7401719;19;20349;-74
2023/05/10 04:33:42;;;;;;;9.25;5.53;;;12.30;99.90;;;;;;7400507;19;20484;-73
2023/05/10 04:36:12;;;;;;;10.52;5.90;;;12.20;99.90;;;;;;7401823;19;19918;-74
2023/05/10 04:38:43;;;;;;;10.27;5.50;;;12.10;99.90;;;;;;7400273;19;19948;-73
2023/05/10 04:41:13;;;;;;;10.40;6.47;;;12.30;99.90;;;;;;7401650;19;19941;-74
2023/05/10 04:43:43;;;;;;;9.60;5.43;;;12.30;99.90;;;;;;7402196;19;19919;-74
2023/05/10 04:46:12;;;;;;;10.73;6.80;;;12.30;99.90;;;;;;7402073;19;19926;-73
2023/05/10 04:48:41;;;;;;;11.13;5.95;;;12.40;99.90;;;;;;7401152;19;19938;-73
2023/05/10 04:51:12;;;;;;;10.30;6.43;;;12.50;99.90;;;;;;7400947;19;20348;-73
2023/05/10 04:54:03;;;;;;;10.02;6.00;;;12.30;99.90;;;;;;7401265;19;20344;-73
2023/05/10 04:56:52;;;;;;;12.18;6.75;;;12.50;99.90;;;;;;7400900;19;19919;-74
2023/05/10 04:59:41;;;;;;;12.45;7.50;;;12.40;99.90;;;;;;7398292;19;19922;-73
2023/05/10 05:02:30;;;;;;;11.98;6.50;;;12.40;99.90;;;;;;7395012;19;19919;-74
2023/05/10 05:05:19;;;;;;;11.65;6.35;;;12.20;99.90;;;;;;7398330;19;19947;-73
2023/05/10 05:08:08;;;;;;;;;;;12.20;99.90;;;;;;7403038;19;19918;-74
2023/05/10 05:10:59;;;;;;;9.65;5.80;;;12.30;99.90;;;;;;7395480;19;19938;-73
2023/05/10 05:13:28;;;;;;;;;;;12.30;99.90;;;;;;7401977;19;19946;-74
2023/05/10 05:15:57;;;;;;;9.32;5.90;;;12.30;99.90;;;;;;7401228;19;19969;-73
2023/05/10 05:18:26;;;;;;;8.80;5.05;;;12.20;99.90;;;;;;7402848;19;19911;-74
2023/05/10 05:20:55;;;;;;;8.07;5.22;;;12.20;99.90;;;;;;7400015;19;19943;-74
2023/05/10 05:23:24;;;;;;;10.35;6.30;;;12.20;99.90;;;;;;7400937;19;19952;-73
2023/05/10 05:25:55;;;;;;;8.48;4.95;;;12.20;99.90;;;;;;7399207;19;19982;-73
2023/05/10 05:28:26;;;;;;;9.85;5.47;;;12.30;99.90;;;;;;7393903;19;19922;-74
2023/05/10 05:30:55;;;;;;;7.88;5.00;;;12.20;99.90;;;;;;7397418;19;19997;-73
2023/05/10 05:33:24;;;;;;;8.13;5.13;;;12.10;99.90;;;;;;7399526;19;19961;-74
2023/05/10 05:35:53;;;;;;;9.88;5.88;;;12.20;99.90;;;;;;7400794;19;19948;-74
2023/05/10 05:38:22;;;;;;;7.25;4.65;;;12.00;99.90;;;;;;7399769;19;19926;-73
2023/05/10 05:40:51;;;;;;;7.13;5.15;;;12.10;99.90;;;;;;7396692;19;19929;-74
2023/05/10 05:43:21;;;;;;;8.30;4.70;;;12.10;99.90;;;;;;7399406;19;19933;-74
2023/05/10 05:45:54;;;;;;;7.43;4.82;;;12.30;99.90;;;;;;7400167;19;19918;-75
2023/05/10 05:48:23;;;;;;;8.93;4.68;;;12.10;99.90;;;;;;7398559;19;19986;-74
2023/05/10 05:50:52;;;;;;;6.72;4.40;;;12.10;99.90;;;;;;7407540;19;19931;-74
2023/05/10 05:53:21;;;;;;;6.30;4.00;;;12.20;99.90;;;;;;7407187;19;19920;-75
2023/05/10 05:55:57;;;;;;;5.43;3.63;;;12.20;99.90;;;;;;7407392;19;19986;-75
2023/05/10 05:58:27;;;;;;;6.20;3.42;;;12.20;99.90;;;;;;7405030;19;19943;-74
2023/05/10 06:00:59;;;;;;;6.18;3.92;;;12.20;99.90;;;;;;7401943;19;19926;-74
2023/05/10 06:03:28;;;;;;;7.30;3.65;;;12.30;99.90;;;;;;7403250;19;19922;-74
2023/05/10 06:05:57;;;;;;;6.45;3.30;;;12.00;99.90;;;;;;7402151;19;19997;-74
2023/05/10 06:08:26;;;;;;;5.35;2.90;;;11.90;99.90;;;;;;7402201;19;19939;-75
2023/05/10 06:10:55;;;;;;;5.22;3.40;;;12.00;99.90;;;;;;7402661;19;19935;-76
2023/05/10 06:13:23;;;;;;;4.80;3.20;;;12.00;99.90;;;;;;7406586;19;20268;-76
2023/05/10 06:15:52;;;;;;;10.35;3.30;;;12.00;99.90;;;;;;7404027;19;19922;-76
2023/05/10 06:18:24;;;;;;;9.40;3.08;;;12.00;99.90;;;;;;7404880;19;20321;-76
2023/05/10 06:20:53;;;;;;;3.65;2.55;;;12.10;99.90;;;;;;7404251;19;19929;-77
2023/05/10 06:23:22;;;;;;;3.50;2.60;;;12.00;99.90;;;;;;7407061;19;19918;-74
2023/05/10 06:25:51;;;;;;;4.55;2.10;;;11.90;99.90;;;;;;7404904;19;19918;-75
2023/05/10 06:28:20;;;;;;;6.68;2.70;;;12.00;99.90;;;;;;7403084;19;20248;-74
2023/05/10 06:30:49;;;;;;;3.90;2.30;;;12.00;99.90;;;;;;7401929;19;19926;-74
2023/05/10 06:33:18;;;;;;;1.95;1.40;;;12.00;99.90;;;;;;7404009;19;19922;-75
2023/05/10 06:35:50;;;;;;;2.15;0.80;;;11.90;99.90;;;;;;7404558;19;20551;-74
2023/05/10 06:38:19;;;;;;;3.53;1.08;;;11.90;99.90;;;;;;7404264;19;20225;-74
2023/05/10 06:40:48;;;;;;;4.72;0.85;;;12.00;99.90;;;;;;7401396;19;19927;-75
2023/05/10 06:43:17;;;;;;;0.68;0.57;;;11.90;99.90;;;;;;7403650;19;19932;-75
2023/05/10 06:45:46;;;;;;;7.03;0.90;;;11.90;99.90;;;;;;7405035;19;19919;-74
2023/05/10 06:48:15;;;;;;;2.05;0.95;;;11.90;99.90;;;;;;7403348;19;19990;-74
2023/05/10 06:50:44;;;;;;;1.27;0.93;;;11.90;99.90;;;;;;7404309;19;20048;-74
2023/05/10 06:53:16;;;;;;;3.03;0.95;;;12.00;99.90;;;;;;7404746;19;19925;-74
2023/05/10 06:55:45;;;;;;;2.65;0.68;;;11.90;99.90;;;;;;7406463;19;19918;-74
2023/05/10 06:58:14;;;;;;;1.55;0.80;;;12.00;99.90;;;;;;7401756;19;19922;-74
2023/05/10 07:00:43;;;;;;;2.70;0.85;;;12.00;99.90;;;;;;7400155;19;20335;-74
2023/05/10 07:03:12;;;;;;;5.20;0.95;;;12.00;99.90;;;;;;7401195;19;20690;-73
2023/05/10 07:05:41;;;;;;;2.35;0.90;;;12.00;99.90;;;;;;7401361;19;19919;-73
2023/05/10 07:08:10;;;;;;;6.03;1.33;;;11.80;99.90;;;;;;7401988;19;20474;-73
2023/05/10 07:10:42;;;;;;;2.55;0.85;;;11.80;99.90;;;;;;7403834;19;19978;-75
2023/05/10 07:13:11;;;;;;;3.25;0.90;;;11.90;99.90;;;;;;7405273;19;21285;-74
2023/05/10 07:15:40;;;;;;;5.25;1.92;;;12.00;99.90;;;;;;7402669;19;19925;-74
2023/05/10 07:18:09;;;;;;;2.33;1.67;;;11.90;99.90;;;;;;7404441;19;20348;-74
2023/05/10 07:20:38;;;;;;;2.08;0.60;;;11.90;99.90;;;;;;7402492;19;20242;-74
2023/05/10 07:23:07;;;;;;;1.02;0.50;;;12.00;99.90;;;;;;7404889;19;19918;-74
2023/05/10 07:25:36;;;;;;;5.45;0.60;;;12.10;99.90;;;;;;7403618;19;19918;-74
2023/05/10 07:28:07;;;;;;;2.03;0.50;;;12.00;99.90;;;;;;7403315;19;19931;-74
2023/05/10 07:30:36;;;;;;;1.05;0.40;;;12.00;99.90;;;;;;7403759;19;19922;-75
2023/05/10 07:33:05;;;;;;;3.78;0.60;;;12.10;99.90;;;;;;7403607;19;20352;-74
2023/05/10 07:35:34;;;;;;;0.60;0.40;;;12.00;99.90;;;;;;7403728;19;19911;-74
2023/05/10 07:38:03;;;;;;;0.30;0.17;;;12.00;99.90;;;;;;7403648;19;19927;-75
2023/05/10 07:40:33;;;;;;;0.43;0.20;;;12.10;99.90;;;;;;7401278;19;20068;-74
2023/05/10 07:43:02;;;;;;;0.60;0.30;;;12.00;99.90;;;;;;7402548;19;20352;-74
2023/05/10 07:45:34;;;;;;;0.55;0.38;;;12.00;99.90;;;;;;7403649;19;19907;-74
2023/05/10 07:48:03;;;;;;;0.30;0.20;;;12.10;99.90;;;;;;7404706;19;20506;-74
2023/05/10 07:50:32;;;;;;;0.40;0.30;;;11.90;99.90;;;;;;7403869;19;20274;-74
2023/05/10 07:53:01;;;;;;;0.70;0.50;;;12.00;99.90;;;;;;7401659;19;19964;-74
2023/05/10 07:55:30;;;;;;;0.63;0.32;;;12.00;99.90;;;;;;7404034;19;19921;-74
2023/05/10 07:58:00;;;;;;;0.40;0.40;;;12.10;99.90;;;;;;7400511;19;19914;-73
2023/05/10 08:00:29;;;;;;;0.80;0.60;;;11.90;99.90;;;;;;7403834;19;19925;-74
2023/05/10 08:03:01;;;;;;;1.15;0.70;;;11.90;99.90;;;;;;7400335;19;20344;-74
2023/05/10 08:05:30;;;;;;;1.15;0.70;;;12.00;99.90;;;;;;7402906;19;19922;-73
2023/05/10 08:07:59;;;;;;;1.20;0.90;;;12.00;99.90;;;;;;7400180;19;19982;-74
2023/05/10 08:10:28;;;;;;;1.33;0.98;;;12.00;99.90;;;;;;7401805;19;20296;-74
2023/05/10 08:12:58;;;;;;;2.00;0.70;;;11.90;99.90;;;;;;7401634;19;19942;-74
2023/05/10 08:15:27;;;;;;;0.80;0.77;;;12.00;99.90;;;;;;7401904;19;19923;-74
2023/05/10 08:17:56;;;;;;;1.00;0.82;;;11.90;99.90;;;;;;7402420;19;19989;-74
2023/05/10 08:20:28;;;;;;;1.55;1.02;;;11.80;99.90;;;;;;7400875;19;19926;-74
2023/05/10 08:22:57;;;;;;;1.73;1.05;;;11.80;99.90;;;;;;7402367;19;19918;-73
2023/05/10 08:25:25;;;;;;;1.73;1.20;;;11.90;99.90;;;;;;7402296;19;19926;-74
2023/05/10 08:27:54;;;;;;;1.90;1.40;;;11.90;99.90;;;;;;7400475;19;19996;-73
2023/05/10 08:30:23;;;;;;;2.00;1.50;;;11.90;99.90;;;;;;7401552;19;19983;-73
2023/05/10 08:32:52;;;;;;;3.33;1.63;;;12.00;99.90;;;;;;7400092;19;19929;-74
2023/05/10 08:35:21;;;;;;;2.03;1.45;;;11.90;99.90;;;;;;7399928;19;19933;-73
2023/05/10 08:37:53;;;;;;;2.15;1.52;;;12.10;99.90;;;;;;7401481;19;19918;-73
2023/05/10 08:40:22;;;;;;;2.33;1.60;;;12.00;99.90;;;;;;7401247;19;20295;-73
2023/05/10 08:42:58;;;;;;;2.88;1.77;;;12.00;99.90;;;;;;7400663;19;19922;-73
2023/05/10 08:45:30;;;;;;;3.22;2.20;;;12.00;99.90;;;;;;7401249;19;19922;-73
2023/05/10 08:48:00;;;;;;;3.88;2.55;;;12.00;99.90;;;;;;7400877;19;20256;-73
2023/05/10 08:50:32;;;;;;;4.18;2.85;;;12.00;99.90;;;;;;7400396;19;19932;-74
2023/05/10 08:53:07;;;;;;;3.63;2.40;;;12.00;99.90;;;;;;7400690;19;19927;-74
2023/05/10 08:55:38;;;;;;;3.38;2.40;;;12.00;99.90;;;;;;7401028;19;20364;-75
2023/05/10 08:58:07;;;;;;;4.07;2.55;;;11.90;99.90;;;;;;7398286;19;19954;-74
2023/05/10 09:00:36;;;;;;;3.70;2.30;;;11.80;99.90;;;;;;7400421;19;19922;-74
2023/05/10 09:03:08;;;;;;;3.15;2.50;;;11.90;99.90;;;;;;7397612;19;19929;-74
2023/05/10 09:05:38;;;;;;;3.00;2.63;;;11.90;99.90;;;;;;7398690;19;19966;-75
2023/05/10 09:08:11;;;;;;;2.88;2.20;;;12.00;99.90;;;;;;7397881;19;19974;-74
2023/05/10 09:10:43;;;;;;;3.50;2.92;;;12.10;99.90;;;;;;7399935;19;19937;-75
2023/05/10 09:13:13;;;;;;;3.30;2.53;;;12.10;99.90;;;;;;7399941;19;19926;-75
2023/05/10 09:15:42;;;;;;;3.08;2.47;;;12.20;99.90;;;;;;7399028;19;19925;-74
2023/05/10 09:18:11;;;;;;;2.60;1.88;;;12.10;99.90;;;;;;7400801;19;19923;-74
2023/05/10 09:20:40;;;;;;;2.17;1.80;;;12.20;99.90;;;;;;7399419;19;19927;-74
2023/05/10 09:23:11;;;;;;;3.00;2.20;;;12.20;99.90;;;;;;7400064;19;19959;-73
2023/05/10 09:25:40;;;;;;;2.38;2.05;;;12.10;99.90;;;;;;7406599;19;19926;-74
2023/05/10 09:28:10;;;;;;;2.50;2.10;;;12.30;99.90;;;;;;7406279;19;19922;-74
2023/05/10 09:30:40;;;;;;;4.53;2.22;;;12.10;99.90;;;;;;7405905;19;20243;-74
2023/05/10 09:33:09;;;;;;;3.20;2.08;;;12.20;99.90;;;;;;7406969;19;19925;-74
2023/05/10 09:35:39;;;;;;;2.58;2.10;;;12.00;99.90;;;;;;7405909;19;20348;-75
2023/05/10 09:38:11;;;;;;;3.28;2.20;;;12.10;99.90;;;;;;7406122;19;19994;-73
2023/05/10 09:40:40;;;;;;;3.45;2.45;;;12.10;99.90;;;;;;7404235;19;20290;-74
2023/05/10 09:43:10;;;;;;;2.72;2.10;;;12.00;99.90;;;;;;7404151;19;19918;-74
2023/05/10 09:45:39;;;;;;;2.60;2.05;;;12.10;99.90;;;;;;7405967;19;19970;-74
2023/05/10 09:48:08;;;;;;;4.03;2.65;;;12.10;99.90;;;;;;7405088;19;20012;-74
2023/05/10 09:50:38;;;;;;;3.17;1.90;;;12.10;99.90;;;;;;7406080;19;19918;-74
2023/05/10 09:53:07;;;;;;;2.58;1.65;;;12.20;99.90;;;;;;7406015;19;19943;-74
2023/05/10 09:55:49;;;;;;;1.95;1.58;;;12.10;99.90;;;;;;7405195;19;19921;-82
2023/05/10 09:58:18;;;;;;;4.32;1.67;;;12.10;99.90;;;;;;7406234;19;20628;-82
2023/05/10 10:00:51;;;;;;;2.50;1.73;;;12.10;99.90;;;;;;7404353;19;19926;-75
2023/05/10 10:03:22;;;;;;;2.70;1.67;;;12.10;99.90;;;;;;7405872;19;20007;-75
2023/05/10 10:05:53;;;;;;;2.67;1.83;;;12.10;99.90;;;;;;7402078;19;19926;-75
2023/05/10 10:08:22;;;;;;;2.67;1.92;;;12.30;99.90;;;;;;7398785;19;19918;-75
2023/05/10 10:10:54;;;;;;;4.18;1.83;;;12.20;99.90;;;;;;7401097;19;19922;-74
2023/05/10 10:13:23;;;;;;;2.95;2.03;;;12.20;99.90;;;;;;7402427;19;19971;-74
2023/05/10 10:15:53;;;;;;;2.75;1.85;;;12.20;99.90;;;;;;7406374;19;19987;-74
2023/05/10 10:18:26;;;;;;;2.35;1.40;;;12.50;99.90;;;;;;7405024;19;19911;-74
2023/05/10 10:20:57;;;;;;;2.53;1.40;;;12.40;99.90;;;;;;7402703;19;19923;-75
2023/05/10 10:23:27;;;;;;;6.53;2.50;;;12.50;99.90;;;;;;7402000;19;19986;-74
2023/05/10 10:25:59;;;;;;;2.03;0.88;;;12.50;99.90;;;;;;7399917;19;20288;-73
2023/05/10 10:28:38;;;;;;;1.17;0.73;;;12.50;99.90;;;;;;7398949;19;19932;-74
2023/05/10 10:31:20;;;;;;;1.30;0.90;;;12.70;99.90;;;;;;7403627;19;20278;-76
2023/05/10 10:34:02;;;;;;;2.08;1.40;;;12.70;99.90;;;;;;7407606;19;20007;-78
2023/05/10 10:36:33;;;;;;;1.92;1.30;;;12.50;99.90;;;;;;7407360;19;20022;-75
2023/05/10 10:39:03;;;;;;;3.17;1.05;;;12.50;99.90;;;;;;7404680;19;19986;-74
2023/05/10 10:41:37;;;;;;;2.88;1.10;;;12.60;99.90;;;;;;7399727;19;19922;-77
2023/05/10 10:44:42;;;;;;;1.45;1.20;;;12.50;99.90;;;;;;7402734;19;19914;-79
2023/05/10 10:47:29;;;;;;;1.13;0.90;;;12.50;99.90;;;;;;7405468;19;20574;-80
2023/05/10 10:50:09;;;;;;;1.98;1.27;;;12.00;99.90;;;;;;7404281;19;19978;-74
2023/05/10 10:52:40;;;;;;;3.38;1.40;;;12.60;99.90;;;;;;7402291;19;19926;-76
2023/05/10 10:55:10;;;;;;;3.00;1.38;;;12.40;99.90;;;;;;7404791;19;19986;-77
2023/05/10 10:57:51;;;;;;;2.65;1.38;;;12.50;99.90;;;;;;7403455;19;19922;-77
2023/05/10 11:00:25;;;;;;;3.72;1.42;;;12.50;99.90;;;;;;7404078;19;20264;-77
2023/05/10 11:02:56;;;;;;;2.72;1.73;;;12.70;99.90;;;;;;7401650;19;20312;-76
2023/05/10 11:05:43;;;;;;;1.98;1.63;;;12.60;99.90;;;;;;7403121;19;19922;-77
2023/05/10 11:08:18;;;;;;;3.60;2.40;;;12.80;99.90;;;;;;7401769;19;19923;-76
2023/05/10 11:10:56;;;;;;;4.53;2.30;;;12.80;99.90;;;;;;7403933;19;19926;-76
2023/05/10 11:13:41;;;;;;;2.58;2.00;;;12.90;99.90;;;;;;7392858;19;20354;-75
2023/05/10 11:16:16;;;;;;;3.40;2.25;;;12.80;99.90;;;;;;7380685;19;19978;-75
2023/05/10 11:19:05;;;;;;;4.82;2.95;;;12.80;99.90;;;;;;7397491;19;19930;-75
2023/05/10 11:21:35;;;;;;;4.93;2.97;;;12.60;99.90;;;;;;7399903;19;19931;-75
2023/05/10 11:24:05;;;;;;;3.97;2.75;;;12.90;99.90;;;;;;7396681;19;19978;-75
2023/05/10 11:26:37;;;;;;;4.25;3.20;;;12.90;99.90;;;;;;7401985;19;19930;-80
2023/05/10 11:29:08;;;;;;;5.00;3.00;;;13.10;99.90;;;;;;7396853;19;19975;-78
2023/05/10 11:31:37;;;;;;;7.82;3.83;;;13.10;99.90;;;;;;7393775;19;19926;-74
2023/05/10 11:34:06;;;;;;;3.35;2.50;;;13.10;99.90;;;;;;7398808;19;19924;-73
2023/05/10 11:36:37;;;;;;;5.47;2.92;;;13.20;99.90;;;;;;7403975;19;19927;-74
2023/05/10 11:39:06;;;;;;;3.13;2.28;;;13.10;99.90;;;;;;7397534;19;19937;-71
2023/05/10 11:41:35;;;;;;;3.63;2.55;;;13.10;99.90;;;;;;7394970;19;19926;-70
2023/05/10 11:44:05;;;;;;;6.85;2.58;;;13.30;99.90;;;;;;7399078;19;20392;-70
2023/05/10 11:46:36;;;;;;;4.10;2.53;;;13.50;99.90;;;;;;7399646;19;19961;-70
2023/05/10 11:49:06;;;;;;;2.20;1.80;;;13.60;99.90;;;;;;7400764;19;19926;-71
2023/05/10 11:51:39;;;;;;;2.45;1.65;;;13.90;99.90;;;;;;7398309;19;19922;-70
2023/05/10 11:54:10;;;;;;;6.70;1.67;;;14.00;99.90;;;;;;7400922;19;19985;-70
2023/05/10 11:56:40;;;;;;;2.90;1.75;;;14.10;99.90;;;;;;7399019;19;19922;-72
2023/05/10 11:59:09;;;;;;;4.65;2.00;;;14.10;99.90;;;;;;7397086;19;20415;-71
2023/05/10 12:01:41;;;;;;;8.18;4.03;;;14.00;99.90;;;;;;7399971;19;19915;-72
2023/05/10 12:04:10;;;;;;;;;;;13.90;99.90;;;;;;7402251;19;19925;-70
2023/05/10 12:06:42;;;;;;;2.47;1.42;;;13.90;99.90;;;;;;7397766;19;19930;-70
2023/05/10 12:09:11;;;;;;;3.40;1.98;;;13.60;99.90;;;;;;7399611;19;19998;-72
2023/05/10 12:11:42;;;;;;;5.03;2.13;;;13.60;99.90;;;;;;7400896;19;19949;-69
2023/05/10 12:14:11;;;;;;;4.30;2.05;;;13.60;99.90;;;;;;7398984;19;19914;-70
2023/05/10 12:16:45;;;;;;;2.58;1.70;;;13.70;99.90;;;;;;7400677;19;19926;-70
2023/05/10 12:19:14;;;;;;;5.88;2.38;;;13.70;99.90;;;;;;7396467;19;19978;-70
2023/05/10 12:21:43;;;;;;;4.05;2.03;;;13.60;99.90;;;;;;7401194;19;20420;-71
2023/05/10 12:24:12;;;;;;;2.53;1.60;;;13.60;99.90;;;;;;7397430;19;19923;-70
2023/05/10 12:26:41;;;;;;;2.83;1.58;;;13.60;99.90;;;;;;7398156;19;19922;-70
2023/05/10 12:29:18;;;;;;;1.67;1.27;;;13.50;99.90;;;;;;7399884;19;19943;-70
2023/05/10 12:31:58;;;;;;;3.60;1.85;;;13.60;99.90;;;;;;7399534;19;20379;-71
2023/05/10 12:34:33;;;;;;;5.13;2.63;;;13.60;99.90;;;;;;7397800;19;19930;-70
2023/05/10 12:37:02;;;;;;;2.53;1.85;;;13.80;99.90;;;;;;7399152;19;20309;-70
2023/05/10 12:39:41;;;;;;;6.03;2.10;;;13.60;99.90;;;;;;7399789;19;19933;-71
2023/05/10 12:42:11;;;;;;;3.25;1.70;;;13.80;99.90;;;;;;7399666;19;19958;-70
2023/05/10 12:44:39;;;;;;;4.75;2.30;;;13.80;99.90;;;;;;7394689;19;19929;-71
2023/05/10 12:47:11;;;;;;;4.50;3.03;;;13.80;99.90;;;;;;7396873;19;19962;-70
2023/05/10 12:49:40;;;;;;;5.85;3.05;;;13.70;99.90;;;;;;7397892;19;19932;-70
2023/05/10 12:52:09;;;;;;;6.57;3.53;;;13.90;99.90;;;;;;7400025;19;20259;-70
2023/05/10 12:54:39;;;;;;;6.00;2.88;;;13.90;99.90;;;;;;7397996;19;19990;-71
2023/05/10 12:57:08;;;;;;;12.05;4.68;;;13.80;99.90;;;;;;7397190;19;19934;-70
2023/05/10 12:59:37;;;;;;;10.60;4.88;;;13.70;99.90;;;;;;7395434;19;20405;-70
2023/05/10 13:02:06;;;;;;;7.07;3.92;;;13.70;99.90;;;;;;7396457;19;19914;-71
2023/05/10 13:04:39;;;;;;;5.68;2.50;;;13.80;99.90;;;;;;7397529;19;19939;-70
2023/05/10 13:07:08;;;;;;;4.88;2.72;;;13.80;99.90;;;;;;7397768;19;19922;-70
2023/05/10 13:09:37;;;;;;;4.50;2.53;;;13.80;99.90;;;;;;7398123;19;19923;-71
2023/05/10 13:12:06;;;;;;;8.68;4.35;;;14.00;99.90;;;;;;7399070;19;20347;-70